Time;durP1;ratioP1;P1;durP2;ratioP2;P2;SDS_P1;SDS_P2;PMS_P1;PMS_P2;Temp;Humidity;BMP_temperature;BMP_pressure;BME280_temperature;BME280_humidity;BME280_pressure;Samples;Min_cycle;Max_cycle;Signal;HPM_P1;HPM_P2
2022/01/22 00:00:15;;;;;;;;;;;21.00;33.10;;;;;;672829;29;1243;-87
2022/01/22 00:00:36;;;;;;;;;;;21.00;33.10;;;;;;675973;29;1235;-85
2022/01/22 00:00:57;;;;;;;;;;;21.00;34.20;;;;;;675480;29;1314;-84
2022/01/22 00:01:17;;;;;;;;;;;21.00;32.90;;;;;;672757;29;1229;-87
2022/01/22 00:01:38;;;;;;;;;;;21.00;32.70;;;;;;673470;29;1435;-85
2022/01/22 00:01:58;;;;;;;;;;;21.00;32.60;;;;;;673675;29;1249;-84
2022/01/22 00:02:19;;;;;;;;;;;21.00;33.20;;;;;;672831;29;1491;-86
2022/01/22 00:02:39;;;;;;;;;;;21.00;32.90;;;;;;675542;29;919;-86
2022/01/22 00:03:01;;;;;;;;;;;21.00;32.70;;;;;;678366;29;776;-87
2022/01/22 00:03:22;;;;;;;;;;;21.00;32.70;;;;;;675428;29;1385;-84
2022/01/22 00:03:42;;;;;;;;;;;21.00;33.10;;;;;;673120;29;1441;-86
2022/01/22 00:04:03;;;;;;;;;;;21.00;33.00;;;;;;676173;29;1345;-87
2022/01/22 00:04:24;;;;;;;;;;;21.00;33.00;;;;;;680700;29;1416;-86
2022/01/22 00:04:44;;;;;;;;;;;21.00;32.80;;;;;;678061;29;1214;-85
2022/01/22 00:05:06;;;;;;;;;;;21.00;33.10;;;;;;678536;29;1260;-86
2022/01/22 00:05:27;;;;;;;;;;;21.00;32.90;;;;;;678092;29;1224;-86
2022/01/22 00:05:47;;;;;;;;;;;21.00;33.20;;;;;;678116;29;982;-86
2022/01/22 00:06:08;;;;;;;;;;;21.00;33.00;;;;;;678413;29;1180;-86
2022/01/22 00:06:28;;;;;;;;;;;21.00;32.90;;;;;;678695;29;1298;-86
2022/01/22 00:06:51;;;;;;;;;;;21.00;33.50;;;;;;681372;29;1242;-86
2022/01/22 00:07:12;;;;;;;;;;;21.00;33.00;;;;;;681603;29;918;-86
2022/01/22 00:07:32;;;;;;;;;;;21.00;33.00;;;;;;681302;29;1216;-86
2022/01/22 00:07:53;;;;;;;;;;;21.00;33.40;;;;;;681388;29;1350;-87
2022/01/22 00:08:13;;;;;;;;;;;21.00;33.40;;;;;;679057;29;1107;-87
2022/01/22 00:08:34;;;;;;;;;;;21.00;33.60;;;;;;679963;29;780;-85
2022/01/22 00:08:55;;;;;;;;;;;21.00;33.50;;;;;;679026;29;1190;-86
2022/01/22 00:09:15;;;;;;;;;;;21.00;33.60;;;;;;676704;29;1215;-86
2022/01/22 00:09:38;;;;;;;;;;;21.00;33.60;;;;;;674355;29;1203;-87
2022/01/22 00:10:04;;;;;;;;;;;21.00;33.80;;;;;;674627;29;1531;-88
2022/01/22 00:10:25;;;;;;;;;;;21.00;33.80;;;;;;674096;29;1227;-87
2022/01/22 00:10:45;;;;;;;;;;;21.00;33.90;;;;;;677692;29;1270;-87
2022/01/22 00:11:06;;;;;;;;;;;21.00;34.00;;;;;;677899;29;1259;-88
2022/01/22 00:11:34;;;;;;;;;;;21.00;34.00;;;;;;681181;29;1311;-85
2022/01/22 00:11:56;;;;;;;;;;;21.00;34.00;;;;;;681668;29;1268;-87
2022/01/22 00:12:30;;;;;;;;;;;21.00;34.00;;;;;;682365;29;1212;-86
2022/01/22 00:14:23;;;;;;;;;;;21.00;34.00;;;;;;686774;28;603;-85
2022/01/22 00:14:44;;;;;;;;;;;21.00;34.10;;;;;;683891;29;1292;-86
2022/01/22 00:15:05;;;;;;;;;;;20.90;34.00;;;;;;681144;29;1187;-88
2022/01/22 00:15:26;;;;;;;;;;;20.90;34.00;;;;;;681419;29;792;-87
2022/01/22 00:15:48;;;;;;;;;;;21.00;34.10;;;;;;678276;29;1183;-88
2022/01/22 00:16:09;;;;;;;;;;;21.00;34.10;;;;;;678557;29;1271;-88
2022/01/22 00:16:29;;;;;;;;;;;20.90;34.00;;;;;;679764;29;1399;-87
2022/01/22 00:16:54;;;;;;;;;;;21.00;34.10;;;;;;682797;29;1041;-87
2022/01/22 00:17:15;;;;;;;;;;;20.90;34.00;;;;;;682230;29;1200;-85
2022/01/22 00:17:38;;;;;;;;;;;21.00;34.10;;;;;;682655;29;1183;-89
2022/01/22 00:17:59;;;;;;;;;;;21.00;34.10;;;;;;683827;29;1365;-87
2022/01/22 00:18:20;;;;;;;;;;;21.00;34.00;;;;;;684174;29;1006;-87
2022/01/22 00:18:40;;;;;;;;;;;21.00;34.00;;;;;;680523;29;1898;-84
2022/01/22 00:19:03;;;;;;;;;;;21.00;34.00;;;;;;680529;29;784;-86
2022/01/22 00:19:24;;;;;;;;;;;21.00;34.10;;;;;;681347;29;1198;-85
2022/01/22 00:19:44;;;;;;;;;;;20.90;34.00;;;;;;680367;29;1144;-87
2022/01/22 00:20:05;;;;;;;;;;;21.00;34.10;;;;;;680473;29;1455;-87
2022/01/22 00:20:27;;;;;;;;;;;21.00;34.00;;;;;;677099;29;1311;-88
2022/01/22 00:20:48;;;;;;;;;;;21.00;34.10;;;;;;677731;29;1248;-88
2022/01/22 00:21:08;;;;;;;;;;;21.00;34.00;;;;;;677837;29;1261;-87
2022/01/22 00:21:29;;;;;;;;;;;21.00;34.10;;;;;;678079;29;1376;-86
2022/01/22 00:21:50;;;;;;;;;;;21.00;34.10;;;;;;677861;29;1328;-87
2022/01/22 00:22:11;;;;;;;;;;;20.90;34.00;;;;;;675617;29;1263;-86
2022/01/22 00:22:34;;;;;;;;;;;21.00;34.10;;;;;;678342;29;1235;-87
2022/01/22 00:22:54;;;;;;;;;;;21.00;34.10;;;;;;677006;29;1337;-86
2022/01/22 00:23:20;;;;;;;;;;;21.00;34.20;;;;;;675107;29;1172;-86
2022/01/22 00:23:48;;;;;;;;;;;21.00;34.10;;;;;;679081;29;1202;-86
2022/01/22 00:24:11;;;;;;;;;;;21.00;34.00;;;;;;680188;29;1353;-87
2022/01/22 00:24:37;;;;;;;;;;;20.90;34.00;;;;;;680335;29;1207;-86
2022/01/22 00:25:00;;;;;;;;;;;20.90;34.00;;;;;;678050;29;1299;-86
2022/01/22 00:25:21;;;;;;;;;;;20.90;34.00;;;;;;677807;29;1350;-87
2022/01/22 00:25:42;;;;;;;;;;;20.90;34.00;;;;;;677758;29;828;-86
2022/01/22 00:26:03;;;;;;;;;;;20.90;33.90;;;;;;675113;29;1362;-87
2022/01/22 00:26:23;;;;;;;;;;;20.90;33.90;;;;;;676555;29;1299;-86
2022/01/22 00:26:44;;;;;;;;;;;21.00;34.00;;;;;;675032;29;1233;-87
2022/01/22 00:27:05;;;;;;;;;;;21.00;34.00;;;;;;675526;29;1409;-87
2022/01/22 00:27:27;;;;;;;;;;;20.90;34.00;;;;;;675126;29;1298;-88
2022/01/22 00:27:48;;;;;;;;;;;21.00;34.00;;;;;;673088;29;1124;-86
2022/01/22 00:28:09;;;;;;;;;;;21.00;34.00;;;;;;675630;29;1160;-86
2022/01/22 00:28:29;;;;;;;;;;;20.90;33.90;;;;;;677768;29;1280;-86
2022/01/22 00:28:50;;;;;;;;;;;21.00;34.00;;;;;;678181;29;1278;-86
2022/01/22 00:29:11;;;;;;;;;;;20.90;33.90;;;;;;678284;29;1223;-87
2022/01/22 00:29:31;;;;;;;;;;;21.00;33.90;;;;;;680479;29;970;-87
2022/01/22 00:29:52;;;;;;;;;;;21.00;33.90;;;;;;679851;29;1246;-86
2022/01/22 00:30:15;;;;;;;;;;;20.90;33.90;;;;;;674870;29;1197;-86
2022/01/22 00:30:36;;;;;;;;;;;20.90;33.90;;;;;;677798;29;1211;-87
2022/01/22 00:30:56;;;;;;;;;;;20.90;33.80;;;;;;675866;29;1136;-88
2022/01/22 00:31:17;;;;;;;;;;;20.90;33.80;;;;;;675076;29;1409;-87
2022/01/22 00:31:39;;;;;;;;;;;20.90;33.80;;;;;;674964;29;1483;-86
2022/01/22 00:32:00;;;;;;;;;;;20.90;33.80;;;;;;673430;29;1232;-86
2022/01/22 00:32:20;;;;;;;;;;;20.90;33.90;;;;;;675090;29;1165;-86
2022/01/22 00:32:41;;;;;;;;;;;21.00;33.90;;;;;;675629;29;1192;-88
2022/01/22 00:33:02;;;;;;;;;;;20.90;33.90;;;;;;675248;29;1288;-87
2022/01/22 00:33:22;;;;;;;;;;;20.90;33.90;;;;;;675584;29;1240;-88
2022/01/22 00:33:43;;;;;;;;;;;20.90;33.90;;;;;;677391;29;1248;-87
2022/01/22 00:34:03;;;;;;;;;;;20.90;33.80;;;;;;675494;29;1314;-87
2022/01/22 00:34:24;;;;;;;;;;;20.90;33.90;;;;;;677695;29;1263;-87
2022/01/22 00:34:45;;;;;;;;;;;20.90;33.90;;;;;;677962;29;1273;-86
2022/01/22 00:35:06;;;;;;;;;;;20.90;33.80;;;;;;679903;29;1155;-86
2022/01/22 00:35:27;;;;;;;;;;;20.90;33.80;;;;;;675531;29;1223;-87
2022/01/22 00:35:47;;;;;;;;;;;20.90;33.80;;;;;;675087;29;1501;-86
2022/01/22 00:36:08;;;;;;;;;;;20.90;33.80;;;;;;676403;29;1212;-87
2022/01/22 00:36:29;;;;;;;;;;;20.90;33.80;;;;;;678303;29;1255;-87
2022/01/22 00:36:49;;;;;;;;;;;20.90;33.80;;;;;;677885;29;1218;-86
2022/01/22 00:37:10;;;;;;;;;;;20.90;33.80;;;;;;677700;29;1260;-87
2022/01/22 00:37:30;;;;;;;;;;;20.90;33.80;;;;;;677894;29;919;-85
2022/01/22 00:37:52;;;;;;;;;;;20.90;33.80;;;;;;678094;29;986;-87
2022/01/22 00:38:14;;;;;;;;;;;20.90;33.80;;;;;;680758;29;1382;-86
2022/01/22 00:38:35;;;;;;;;;;;20.90;33.80;;;;;;682692;29;1454;-86
2022/01/22 00:38:55;;;;;;;;;;;20.90;33.70;;;;;;680236;29;1894;-87
2022/01/22 00:39:16;;;;;;;;;;;20.90;33.80;;;;;;677658;29;1329;-87
2022/01/22 00:39:37;;;;;;;;;;;20.90;33.80;;;;;;677729;29;1234;-87
2022/01/22 00:39:58;;;;;;;;;;;20.90;33.80;;;;;;677882;29;1241;-87
2022/01/22 00:40:19;;;;;;;;;;;20.90;33.80;;;;;;677903;29;1285;-87
2022/01/22 00:40:41;;;;;;;;;;;20.90;33.70;;;;;;678099;29;1234;-86
2022/01/22 00:41:02;;;;;;;;;;;20.90;33.80;;;;;;680405;29;1246;-87
2022/01/22 00:41:23;;;;;;;;;;;20.90;33.70;;;;;;680982;29;1254;-88
2022/01/22 00:41:43;;;;;;;;;;;20.90;33.70;;;;;;679559;29;1221;-87
2022/01/22 00:42:10;;;;;;;;;;;20.90;33.70;;;;;;675889;29;1322;-88
2022/01/22 00:42:33;;;;;;;;;;;20.90;33.80;;;;;;676588;29;1283;-87
2022/01/22 00:42:53;;;;;;;;;;;20.90;33.80;;;;;;679029;29;1592;-88
2022/01/22 00:43:14;;;;;;;;;;;20.90;33.80;;;;;;677597;29;1098;-86
2022/01/22 00:43:34;;;;;;;;;;;20.90;33.70;;;;;;676561;29;1345;-87
2022/01/22 00:43:55;;;;;;;;;;;20.90;33.80;;;;;;679244;29;843;-87
2022/01/22 00:44:16;;;;;;;;;;;20.90;33.80;;;;;;680403;29;828;-87
2022/01/22 00:44:36;;;;;;;;;;;20.90;33.70;;;;;;677709;29;1361;-87
2022/01/22 00:44:57;;;;;;;;;;;20.90;33.80;;;;;;677591;29;1331;-85
2022/01/22 00:45:19;;;;;;;;;;;20.90;33.70;;;;;;678193;29;1229;-86
2022/01/22 00:45:39;;;;;;;;;;;20.90;33.80;;;;;;680381;29;1353;-87
2022/01/22 00:46:00;;;;;;;;;;;20.90;33.70;;;;;;680490;29;784;-89
2022/01/22 00:46:21;;;;;;;;;;;20.90;33.60;;;;;;680438;29;987;-86
2022/01/22 00:46:41;;;;;;;;;;;20.90;33.60;;;;;;680830;29;1138;-87
2022/01/22 00:47:02;;;;;;;;;;;20.90;33.60;;;;;;680244;29;1345;-84
2022/01/22 00:47:23;;;;;;;;;;;20.90;33.60;;;;;;680353;29;1301;-87
2022/01/22 00:47:43;;;;;;;;;;;20.90;33.60;;;;;;677791;29;1263;-86
2022/01/22 00:48:04;;;;;;;;;;;20.90;33.60;;;;;;674701;29;1754;-86
2022/01/22 00:48:25;;;;;;;;;;;20.90;33.50;;;;;;675498;29;1330;-86
2022/01/22 00:48:45;;;;;;;;;;;20.90;33.50;;;;;;675121;29;1235;-86
2022/01/22 00:49:06;;;;;;;;;;;20.90;33.60;;;;;;675581;29;821;-88
2022/01/22 00:49:27;;;;;;;;;;;20.90;34.70;;;;;;680516;29;1313;-87
2022/01/22 00:49:47;;;;;;;;;;;20.90;33.60;;;;;;677770;29;1302;-87
2022/01/22 00:50:11;;;;;;;;;;;20.90;33.60;;;;;;675098;29;1220;-87
2022/01/22 00:50:32;;;;;;;;;;;20.90;33.60;;;;;;676014;29;839;-87
2022/01/22 00:50:55;;;;;;;;;;;20.90;33.60;;;;;;677842;29;852;-87
2022/01/22 00:51:16;;;;;;;;;;;20.90;33.60;;;;;;678741;29;1376;-87
2022/01/22 00:51:37;;;;;;;;;;;20.90;33.50;;;;;;678829;29;1219;-89
2022/01/22 00:51:57;;;;;;;;;;;20.90;33.60;;;;;;677835;29;1300;-87
2022/01/22 00:52:18;;;;;;;;;;;20.90;33.60;;;;;;677820;29;1223;-88
2022/01/22 00:52:40;;;;;;;;;;;20.90;33.60;;;;;;677883;29;1191;-86
2022/01/22 00:53:00;;;;;;;;;;;20.90;33.60;;;;;;677952;29;1334;-88
2022/01/22 00:53:21;;;;;;;;;;;20.90;33.50;;;;;;678110;29;1444;-87
2022/01/22 00:53:41;;;;;;;;;;;20.90;33.60;;;;;;681005;29;851;-87
2022/01/22 00:54:02;;;;;;;;;;;20.90;33.50;;;;;;680344;29;1403;-88
2022/01/22 00:54:22;;;;;;;;;;;20.90;33.50;;;;;;680571;28;1167;-88
2022/01/22 00:54:43;;;;;;;;;;;20.90;33.50;;;;;;680341;29;1353;-87
2022/01/22 00:55:04;;;;;;;;;;;20.90;33.60;;;;;;680608;29;1218;-87
2022/01/22 00:55:24;;;;;;;;;;;20.90;33.50;;;;;;677832;29;1148;-87
2022/01/22 00:55:45;;;;;;;;;;;20.90;33.50;;;;;;678068;29;876;-87
2022/01/22 00:56:05;;;;;;;;;;;20.90;33.50;;;;;;678152;29;1224;-89
2022/01/22 00:56:26;;;;;;;;;;;20.90;33.50;;;;;;678006;29;1402;-88
2022/01/22 00:56:47;;;;;;;;;;;20.90;33.50;;;;;;678193;29;1211;-87
2022/01/22 00:57:07;;;;;;;;;;;20.90;33.50;;;;;;678316;29;793;-87
2022/01/22 00:57:28;;;;;;;;;;;20.90;33.60;;;;;;678122;29;1092;-88
2022/01/22 00:57:49;;;;;;;;;;;20.90;33.50;;;;;;677878;29;1238;-87
2022/01/22 00:58:09;;;;;;;;;;;20.90;33.60;;;;;;675612;29;1630;-86
2022/01/22 00:58:30;;;;;;;;;;;20.80;33.50;;;;;;674938;29;1724;-85
2022/01/22 00:58:50;;;;;;;;;;;20.90;33.60;;;;;;672021;29;1915;-85
2022/01/22 00:59:11;;;;;;;;;;;20.90;33.50;;;;;;672272;29;1224;-85
2022/01/22 00:59:31;;;;;;;;;;;20.80;33.50;;;;;;672802;29;1126;-86
2022/01/22 00:59:54;;;;;;;;;;;20.80;33.40;;;;;;672419;29;1675;-84
2022/01/22 01:00:15;;;;;;;;;;;20.90;33.50;;;;;;672383;29;1352;-84
2022/01/22 01:00:36;;;;;;;;;;;20.90;33.50;;;;;;675328;29;1320;-85
2022/01/22 01:00:57;;;;;;;;;;;20.90;33.50;;;;;;675098;29;1192;-86
2022/01/22 01:01:17;;;;;;;;;;;20.80;33.40;;;;;;675679;29;1261;-86
2022/01/22 01:01:38;;;;;;;;;;;20.90;33.40;;;;;;674935;29;1289;-85
2022/01/22 01:01:59;;;;;;;;;;;20.80;33.30;;;;;;675523;29;781;-85
2022/01/22 01:02:19;;;;;;;;;;;20.80;33.30;;;;;;677643;29;785;-85
2022/01/22 01:02:40;;;;;;;;;;;20.80;33.30;;;;;;678002;29;947;-84
2022/01/22 01:03:01;;;;;;;;;;;20.80;33.30;;;;;;678010;29;1366;-86
2022/01/22 01:03:21;;;;;;;;;;;20.80;33.20;;;;;;680678;29;855;-83
2022/01/22 01:03:42;;;;;;;;;;;20.80;33.30;;;;;;680172;29;1256;-84
2022/01/22 01:04:03;;;;;;;;;;;20.80;33.30;;;;;;680127;29;1669;-83
2022/01/22 01:04:24;;;;;;;;;;;20.80;33.30;;;;;;680242;29;1825;-82
2022/01/22 01:04:44;;;;;;;;;;;20.80;33.20;;;;;;682315;29;1523;-82
2022/01/22 01:05:06;;;;;;;;;;;20.80;33.30;;;;;;683070;29;832;-82
2022/01/22 01:05:26;;;;;;;;;;;20.80;33.30;;;;;;682809;29;1289;-81
2022/01/22 01:05:47;;;;;;;;;;;20.80;33.20;;;;;;680229;29;820;-83
2022/01/22 01:06:07;;;;;;;;;;;20.80;33.20;;;;;;680278;29;1306;-82
2022/01/22 01:06:29;;;;;;;;;;;20.80;33.20;;;;;;680462;29;472;-83
2022/01/22 01:06:49;;;;;;;;;;;20.80;33.10;;;;;;680299;29;816;-83
2022/01/22 01:07:10;;;;;;;;;;;20.80;33.20;;;;;;680447;29;1349;-84
2022/01/22 01:07:30;;;;;;;;;;;20.80;33.20;;;;;;683347;28;1006;-83
2022/01/22 01:07:51;;;;;;;;;;;20.80;33.20;;;;;;685788;28;792;-83
2022/01/22 01:08:11;;;;;;;;;;;20.80;33.20;;;;;;686073;28;784;-84
2022/01/22 01:08:34;;;;;;;;;;;20.80;33.20;;;;;;683355;29;1231;-83
2022/01/22 01:08:56;;;;;;;;;;;20.80;33.20;;;;;;683426;29;819;-84
2022/01/22 01:09:17;;;;;;;;;;;20.80;33.20;;;;;;680770;29;851;-84
2022/01/22 01:09:39;;;;;;;;;;;20.80;33.10;;;;;;680682;29;820;-83
2022/01/22 01:10:00;;;;;;;;;;;20.80;33.20;;;;;;680753;29;1531;-84
2022/01/22 01:10:21;;;;;;;;;;;20.80;33.00;;;;;;680716;29;1099;-83
2022/01/22 01:10:42;;;;;;;;;;;20.80;33.10;;;;;;680728;29;833;-83
2022/01/22 01:11:03;;;;;;;;;;;20.80;33.10;;;;;;680827;29;788;-84
2022/01/22 01:11:26;;;;;;;;;;;20.80;33.10;;;;;;680868;29;859;-83
2022/01/22 01:11:52;;;;;;;;;;;20.80;33.10;;;;;;680833;29;847;-83
2022/01/22 01:12:13;;;;;;;;;;;20.80;33.10;;;;;;678096;29;1371;-83
2022/01/22 01:12:36;;;;;;;;;;;20.80;33.10;;;;;;678171;29;1200;-84
2022/01/22 01:12:56;;;;;;;;;;;20.80;33.00;;;;;;678055;29;1252;-84
2022/01/22 01:13:17;;;;;;;;;;;20.80;33.00;;;;;;678201;29;785;-84
2022/01/22 01:13:43;;;;;;;;;;;20.80;33.00;;;;;;677970;29;1365;-84
2022/01/22 01:14:07;;;;;;;;;;;20.80;33.10;;;;;;678261;29;856;-83
2022/01/22 01:14:35;;;;;;;;;;;20.80;33.00;;;;;;680023;29;895;-83
2022/01/22 01:15:40;;;;;;;;;;;20.80;33.00;;;;;;680809;29;1462;-85
2022/01/22 01:16:17;;;;;;;;;;;20.70;32.90;;;;;;680969;29;871;-83
2022/01/22 01:17:56;;;;;;;;;;;20.70;32.80;;;;;;680802;29;735;-83
2022/01/22 01:32:19;;;;;;;;;;;20.70;32.60;;;;;;678016;29;666;-83
2022/01/22 01:33:27;;;;;;;;;;;20.60;32.50;;;;;;675481;29;717;-82
2022/01/22 01:34:28;;;;;;;;;;;20.60;32.50;;;;;;667880;29;1323;-81
2022/01/22 01:34:33;;;;;;;;;;;20.60;32.50;;;;;;674895;29;1081;-82
2022/01/22 01:34:50;;;;;;;;;;;20.60;32.50;;;;;;674487;29;1832;-81
2022/01/22 01:35:11;;;;;;;;;;;20.60;32.50;;;;;;674842;29;1344;-82
2022/01/22 01:35:35;;;;;;;;;;;20.60;32.50;;;;;;675395;29;1355;-82
2022/01/22 01:35:56;;;;;;;;;;;20.60;32.50;;;;;;675428;29;1228;-82
2022/01/22 01:36:17;;;;;;;;;;;20.60;32.50;;;;;;672735;29;845;-82
2022/01/22 01:36:37;;;;;;;;;;;20.70;32.60;;;;;;672699;29;849;-82
2022/01/22 01:36:58;;;;;;;;;;;20.70;32.50;;;;;;671000;29;1276;-82
2022/01/22 01:37:19;;;;;;;;;;;20.60;32.50;;;;;;672846;29;796;-82
2022/01/22 01:37:40;;;;;;;;;;;20.60;32.50;;;;;;672801;29;859;-83
2022/01/22 01:38:02;;;;;;;;;;;20.60;32.50;;;;;;672849;29;1125;-82
2022/01/22 01:38:24;;;;;;;;;;;20.60;32.50;;;;;;673364;29;914;-82
2022/01/22 01:38:51;;;;;;;;;;;20.60;32.50;;;;;;675891;29;1910;-81
2022/01/22 01:39:16;;;;;;;;;;;20.60;32.40;;;;;;675308;29;1433;-81
2022/01/22 01:39:38;;;;;;;;;;;20.60;32.50;;;;;;675184;29;1796;-83
2022/01/22 01:40:03;;;;;;;;;;;20.70;32.70;;;;;;673359;29;776;-81
2022/01/22 01:40:25;;;;;;;;;;;20.60;32.60;;;;;;672660;29;1378;-81
2022/01/22 01:40:54;;;;;;;;;;;20.60;32.70;;;;;;672822;29;867;-82
2022/01/22 01:41:25;;;;;;;;;;;20.60;32.60;;;;;;672768;29;1258;-81
2022/01/22 01:42:24;;;;;;;;;;;20.60;32.60;;;;;;673902;29;780;-81
2022/01/22 01:42:51;;;;;;;;;;;20.60;32.60;;;;;;672793;29;1222;-82
2022/01/22 01:43:20;;;;;;;;;;;20.60;32.60;;;;;;674304;29;1245;-80
2022/01/22 01:43:41;;;;;;;;;;;20.60;32.60;;;;;;672395;29;1517;-82
2022/01/22 01:44:01;;;;;;;;;;;20.60;32.50;;;;;;672935;29;859;-82
2022/01/22 01:44:22;;;;;;;;;;;20.60;32.60;;;;;;672756;29;796;-82
2022/01/22 01:44:43;;;;;;;;;;;20.60;33.60;;;;;;672366;29;1319;-82
2022/01/22 01:45:05;;;;;;;;;;;20.60;32.50;;;;;;672788;29;883;-82
2022/01/22 01:45:26;;;;;;;;;;;20.60;32.50;;;;;;673257;29;1042;-83
2022/01/22 01:45:47;;;;;;;;;;;20.60;32.50;;;;;;672706;29;1508;-82
2022/01/22 01:46:08;;;;;;;;;;;20.60;32.60;;;;;;672834;29;824;-83
2022/01/22 01:46:31;;;;;;;;;;;20.60;32.50;;;;;;673508;29;880;-82
2022/01/22 01:46:55;;;;;;;;;;;20.60;32.50;;;;;;675277;29;1202;-82
2022/01/22 01:47:18;;;;;;;;;;;20.60;32.40;;;;;;675351;29;856;-82
2022/01/22 01:47:41;;;;;;;;;;;20.60;32.50;;;;;;676732;29;874;-82
2022/01/22 01:48:07;;;;;;;;;;;20.60;32.50;;;;;;678163;29;914;-81
2022/01/22 01:48:32;;;;;;;;;;;20.60;32.40;;;;;;678019;29;1527;-81
2022/01/22 01:48:52;;;;;;;;;;;20.60;32.40;;;;;;672463;29;1198;-82
2022/01/22 01:49:13;;;;;;;;;;;20.60;32.40;;;;;;672906;29;887;-81
2022/01/22 01:49:34;;;;;;;;;;;20.60;32.50;;;;;;672908;29;808;-82
2022/01/22 01:49:55;;;;;;;;;;;20.60;32.50;;;;;;675232;29;1128;-82
2022/01/22 01:50:15;;;;;;;;;;;20.60;32.40;;;;;;674082;29;1254;-82
2022/01/22 01:50:38;;;;;;;;;;;20.60;32.50;;;;;;672817;29;1355;-82
2022/01/22 01:50:59;;;;;;;;;;;20.60;32.30;;;;;;672780;29;1358;-82
2022/01/22 01:51:23;;;;;;;;;;;20.60;32.40;;;;;;672791;29;903;-82
2022/01/22 01:51:44;;;;;;;;;;;20.60;32.40;;;;;;670266;29;1359;-82
2022/01/22 01:52:09;;;;;;;;;;;20.60;32.40;;;;;;668804;29;1254;-81
2022/01/22 01:53:05;;;;;;;;;;;20.60;32.40;;;;;;670329;29;757;-81
2022/01/22 01:53:18;;;;;;;;;;;20.60;32.40;;;;;;672613;29;939;-81
2022/01/22 01:54:01;;;;;;;;;;;20.60;32.40;;;;;;671884;29;845;-82
2022/01/22 01:55:10;;;;;;;;;;;20.60;32.40;;;;;;678081;29;808;-82
2022/01/22 01:55:49;;;;;;;;;;;20.60;32.40;;;;;;679403;29;1371;-82
2022/01/22 01:57:45;;;;;;;;;;;20.60;32.40;;;;;;675429;29;610;-81
2022/01/22 01:58:05;;;;;;;;;;;20.60;32.30;;;;;;675514;29;820;-81
2022/01/22 01:58:29;;;;;;;;;;;20.60;32.40;;;;;;672732;29;915;-82
2022/01/22 01:58:50;;;;;;;;;;;20.60;32.30;;;;;;672661;29;1974;-83
2022/01/22 01:59:13;;;;;;;;;;;20.60;32.30;;;;;;672787;29;851;-81
2022/01/22 01:59:34;;;;;;;;;;;20.50;32.30;;;;;;670029;29;1327;-82
2022/01/22 01:59:56;;;;;;;;;;;20.50;32.30;;;;;;673621;29;995;-82
2022/01/22 02:00:20;;;;;;;;;;;20.60;32.40;;;;;;676546;29;843;-83
2022/01/22 02:00:41;;;;;;;;;;;20.60;32.30;;;;;;675265;29;1218;-82
2022/01/22 02:01:03;;;;;;;;;;;20.60;32.40;;;;;;675437;29;808;-81
2022/01/22 02:01:24;;;;;;;;;;;20.50;32.20;;;;;;676481;29;899;-82
2022/01/22 02:01:44;;;;;;;;;;;20.50;32.30;;;;;;675195;29;1223;-81
2022/01/22 02:02:05;;;;;;;;;;;20.50;32.20;;;;;;672740;29;1297;-81
2022/01/22 02:02:29;;;;;;;;;;;20.50;32.20;;;;;;671095;29;1482;-82
2022/01/22 02:02:50;;;;;;;;;;;20.50;32.20;;;;;;672808;29;1075;-81
2022/01/22 02:03:12;;;;;;;;;;;20.50;32.30;;;;;;670087;29;1312;-81
2022/01/22 02:03:33;;;;;;;;;;;20.50;32.10;;;;;;671214;29;915;-82
2022/01/22 02:03:53;;;;;;;;;;;20.50;32.30;;;;;;673809;29;836;-82
2022/01/22 02:04:14;;;;;;;;;;;20.50;31.90;;;;;;676197;29;924;-82
2022/01/22 02:04:35;;;;;;;;;;;20.50;32.00;;;;;;677626;29;1187;-82
2022/01/22 02:04:55;;;;;;;;;;;20.50;32.00;;;;;;675713;29;1258;-83
2022/01/22 02:05:17;;;;;;;;;;;20.50;31.90;;;;;;675277;29;951;-83
2022/01/22 02:05:38;;;;;;;;;;;20.50;32.20;;;;;;675268;29;887;-83
2022/01/22 02:05:59;;;;;;;;;;;20.50;31.90;;;;;;672770;29;1362;-82
2022/01/22 02:06:19;;;;;;;;;;;20.50;31.80;;;;;;672771;29;856;-81
2022/01/22 02:06:41;;;;;;;;;;;20.50;32.20;;;;;;673319;29;871;-81
2022/01/22 02:07:02;;;;;;;;;;;20.50;31.90;;;;;;673300;29;812;-82
2022/01/22 02:07:22;;;;;;;;;;;20.50;31.80;;;;;;675323;29;820;-82
2022/01/22 02:07:44;;;;;;;;;;;20.50;31.60;;;;;;675582;29;1460;-83
2022/01/22 02:08:06;;;;;;;;;;;20.50;31.70;;;;;;678105;29;851;-83
2022/01/22 02:08:26;;;;;;;;;;;20.50;31.50;;;;;;678061;29;820;-82
2022/01/22 02:08:47;;;;;;;;;;;20.50;31.30;;;;;;675771;29;1251;-82
2022/01/22 02:09:09;;;;;;;;;;;20.50;31.30;;;;;;680150;28;1743;-81
2022/01/22 02:09:31;;;;;;;;;;;20.50;31.60;;;;;;683372;29;1379;-82
2022/01/22 02:09:52;;;;;;;;;;;20.50;31.60;;;;;;680540;29;848;-82
2022/01/22 02:10:19;;;;;;;;;;;20.50;31.80;;;;;;680616;29;819;-81
2022/01/22 02:10:45;;;;;;;;;;;20.50;31.80;;;;;;677988;29;852;-82
2022/01/22 02:11:07;;;;;;;;;;;20.50;31.60;;;;;;676621;29;1652;-82
2022/01/22 02:11:29;;;;;;;;;;;20.50;31.70;;;;;;678151;29;863;-82
2022/01/22 02:12:00;;;;;;;;;;;20.50;32.10;;;;;;679911;29;1309;-82
2022/01/22 02:12:49;;;;;;;;;;;20.50;32.00;;;;;;680624;29;883;-82
2022/01/22 02:14:03;;;;;;;;;;;20.50;31.80;;;;;;686084;28;672;-83
2022/01/22 02:23:44;;;;;;;;;;;20.40;31.40;;;;;;686237;28;606;-82
2022/01/22 02:24:07;;;;;;;;;;;20.40;31.50;;;;;;683297;28;1663;-82
2022/01/22 02:24:27;;;;;;;;;;;20.40;31.90;;;;;;683220;29;1119;-82
2022/01/22 02:24:49;;;;;;;;;;;20.40;31.60;;;;;;680455;29;1390;-83
2022/01/22 02:25:11;;;;;;;;;;;20.40;31.30;;;;;;680659;29;839;-83
2022/01/22 02:25:32;;;;;;;;;;;20.40;31.30;;;;;;683308;29;1223;-80
2022/01/22 02:25:56;;;;;;;;;;;20.40;31.60;;;;;;680469;29;1202;-83
2022/01/22 02:26:18;;;;;;;;;;;20.40;31.80;;;;;;677852;29;1280;-83
2022/01/22 02:26:44;;;;;;;;;;;20.40;31.60;;;;;;679164;29;1338;-82
2022/01/22 02:27:05;;;;;;;;;;;20.40;31.40;;;;;;677929;29;1195;-82
2022/01/22 02:27:26;;;;;;;;;;;20.40;31.80;;;;;;676144;29;1357;-82
2022/01/22 02:27:46;;;;;;;;;;;20.50;31.60;;;;;;677950;29;1239;-83
2022/01/22 02:28:07;;;;;;;;;;;20.40;31.50;;;;;;679037;29;1222;-82
2022/01/22 02:28:27;;;;;;;;;;;20.40;31.20;;;;;;678993;29;789;-82
2022/01/22 02:28:50;;;;;;;;;;;20.40;31.30;;;;;;678052;29;1337;-82
2022/01/22 02:29:11;;;;;;;;;;;20.40;31.30;;;;;;679981;29;764;-82
2022/01/22 02:29:31;;;;;;;;;;;20.40;31.10;;;;;;680016;29;1247;-81
2022/01/22 02:29:52;;;;;;;;;;;20.40;31.30;;;;;;677852;29;1436;-82
2022/01/22 02:30:19;;;;;;;;;;;20.40;30.90;;;;;;681032;29;1329;-82
2022/01/22 02:30:44;;;;;;;;;;;20.40;31.20;;;;;;681903;29;880;-81
2022/01/22 02:31:18;;;;;;;;;;;20.40;30.90;;;;;;680516;29;888;-82
2022/01/22 02:31:43;;;;;;;;;;;20.40;31.40;;;;;;680544;29;816;-81
2022/01/22 02:32:38;;;;;;;;;;;20.40;31.50;;;;;;679298;29;887;-82
2022/01/22 02:34:32;;;;;;;;;;;20.40;33.50;;;;;;683430;29;925;-81
2022/01/22 02:35:07;;;;;;;;;;;20.40;32.30;;;;;;683341;29;818;-81
2022/01/22 02:35:32;;;;;;;;;;;20.40;32.40;;;;;;683418;29;867;-81
2022/01/22 02:36:12;;;;;;;;;;;20.40;32.30;;;;;;683451;29;838;-81
2022/01/22 02:36:42;;;;;;;;;;;20.40;32.30;;;;;;683076;29;1375;-79
2022/01/22 02:37:11;;;;;;;;;;;20.40;32.40;;;;;;680544;29;1400;-82
2022/01/22 02:37:36;;;;;;;;;;;20.40;32.30;;;;;;683257;29;1251;-81
2022/01/22 02:38:06;;;;;;;;;;;20.40;32.40;;;;;;680524;29;1222;-81
2022/01/22 02:38:38;;;;;;;;;;;20.40;32.40;;;;;;677966;29;1265;-82
2022/01/22 02:39:36;;;;;;;;;;;20.40;32.40;;;;;;683222;29;865;-81
2022/01/22 02:40:05;;;;;;;;;;;20.40;32.40;;;;;;685913;28;1258;-82
2022/01/22 02:40:29;;;;;;;;;;;20.40;32.30;;;;;;685896;28;870;-83
2022/01/22 02:40:50;;;;;;;;;;;20.40;32.30;;;;;;685765;28;1194;-81
2022/01/22 02:41:16;;;;;;;;;;;20.40;32.40;;;;;;683148;29;1130;-80
2022/01/22 02:41:41;;;;;;;;;;;20.40;33.40;;;;;;682990;29;1230;-83
2022/01/22 02:42:02;;;;;;;;;;;20.40;32.30;;;;;;683189;29;1297;-81
2022/01/22 02:42:27;;;;;;;;;;;20.40;32.30;;;;;;683183;29;912;-81
2022/01/22 02:42:50;;;;;;;;;;;20.40;32.30;;;;;;685325;28;788;-82
2022/01/22 02:43:11;;;;;;;;;;;20.40;32.30;;;;;;682684;29;1352;-82
2022/01/22 02:43:32;;;;;;;;;;;20.40;32.30;;;;;;680570;29;1477;-81
2022/01/22 02:43:54;;;;;;;;;;;20.40;32.20;;;;;;679268;29;1097;-80
2022/01/22 02:44:35;;;;;;;;;;;20.40;32.30;;;;;;677742;29;1094;-82
2022/01/22 02:44:55;;;;;;;;;;;20.40;32.30;;;;;;678487;29;800;-83
2022/01/22 02:45:20;;;;;;;;;;;20.40;33.30;;;;;;680915;29;1416;-82
2022/01/22 02:45:42;;;;;;;;;;;20.40;32.20;;;;;;681249;29;1253;-82
2022/01/22 02:46:02;;;;;;;;;;;20.40;32.30;;;;;;681350;29;1326;-82
2022/01/22 02:46:24;;;;;;;;;;;20.40;32.30;;;;;;682226;29;1324;-81
2022/01/22 02:46:48;;;;;;;;;;;20.40;32.10;;;;;;683259;29;843;-83
2022/01/22 02:47:09;;;;;;;;;;;20.40;32.20;;;;;;683147;29;819;-82
2022/01/22 02:47:29;;;;;;;;;;;20.40;32.20;;;;;;683293;29;1020;-81
2022/01/22 02:47:50;;;;;;;;;;;20.40;32.30;;;;;;681332;29;1214;-81
2022/01/22 02:48:11;;;;;;;;;;;20.40;32.30;;;;;;684063;28;865;-81
2022/01/22 02:48:31;;;;;;;;;;;20.40;32.30;;;;;;683204;29;1232;-82
2022/01/22 02:48:54;;;;;;;;;;;20.40;32.30;;;;;;683081;29;1097;-82